Time;durP1;ratioP1;P1;durP2;ratioP2;P2;SDS_P1;SDS_P2;PMS_P1;PMS_P2;Temp;Humidity;BMP_temperature;BMP_pressure;BME280_temperature;BME280_humidity;BME280_pressure;Samples;Min_cycle;Max_cycle;Signal;HPM_P1;HPM_P2
2021/10/22 00:00:43;;;;;;;;;15.33;15.00;;;;;;;;5098945;28;8802;-79
2021/10/22 00:03:08;;;;;;;;;13.67;13.67;;;;;;;;5098415;28;8786;-77
2021/10/22 00:05:33;;;;;;;;;19.00;17.33;;;;;;;;5105367;28;8883;-77
2021/10/22 00:07:59;;;;;;;;;20.00;18.33;;;;;;;;5103110;28;8824;-76
2021/10/22 00:10:25;;;;;;;;;20.33;17.67;;;;;;;;5101824;28;8801;-76
2021/10/22 00:12:50;;;;;;;;;19.00;15.00;;;;;;;;5104112;28;8778;-76
2021/10/22 00:15:15;;;;;;;;;12.33;12.00;;;;;;;;5104033;28;8959;-76
2021/10/22 00:17:40;;;;;;;;;15.00;14.00;;;;;;;;5106591;28;8818;-77
2021/10/22 00:20:07;;;;;;;;;17.00;16.67;;;;;;;;5104415;28;8798;-78
2021/10/22 00:22:32;;;;;;;;;14.33;14.33;;;;;;;;5098631;28;8777;-79
2021/10/22 00:24:58;;;;;;;;;16.67;14.33;;;;;;;;5098832;28;9140;-78
2021/10/22 00:27:23;;;;;;;;;16.67;12.67;;;;;;;;5098924;28;8808;-77
2021/10/22 00:29:48;;;;;;;;;13.00;13.00;;;;;;;;5102629;28;8811;-78
2021/10/22 00:32:14;;;;;;;;;14.00;14.00;;;;;;;;5117136;28;8815;-78
2021/10/22 00:34:39;;;;;;;;;12.33;12.00;;;;;;;;5121393;28;8750;-77
2021/10/22 00:37:05;;;;;;;;;11.33;11.33;;;;;;;;5126723;27;9195;-76
2021/10/22 00:39:30;;;;;;;;;18.33;15.33;;;;;;;;5125879;28;8894;-76
2021/10/22 00:41:56;;;;;;;;;11.67;11.67;;;;;;;;5124667;27;8881;-75
2021/10/22 00:44:21;;;;;;;;;11.67;11.67;;;;;;;;5128072;27;8787;-76
2021/10/22 00:46:46;;;;;;;;;15.67;14.00;;;;;;;;5126639;28;8853;-76
2021/10/22 00:49:12;;;;;;;;;16.33;14.00;;;;;;;;5125664;27;8831;-76
2021/10/22 00:51:38;;;;;;;;;13.33;13.00;;;;;;;;5118451;28;8822;-78
2021/10/22 00:54:05;;;;;;;;;12.67;12.00;;;;;;;;5118170;28;8776;-78
2021/10/22 00:56:31;;;;;;;;;13.33;12.67;;;;;;;;5118378;27;9124;-78
2021/10/22 00:58:57;;;;;;;;;12.00;12.00;;;;;;;;5120093;27;9254;-78
2021/10/22 01:01:22;;;;;;;;;15.33;15.33;;;;;;;;5121205;28;9014;-78
2021/10/22 01:03:47;;;;;;;;;15.00;15.00;;;;;;;;5125576;27;8843;-75
2021/10/22 01:06:12;;;;;;;;;16.33;16.33;;;;;;;;5129923;27;8843;-76
2021/10/22 01:08:38;;;;;;;;;15.67;13.00;;;;;;;;5132625;27;8825;-75
2021/10/22 01:11:03;;;;;;;;;14.67;13.67;;;;;;;;5131718;27;8815;-76
2021/10/22 01:13:29;;;;;;;;;18.00;15.33;;;;;;;;5128477;28;8925;-76
2021/10/22 01:15:54;;;;;;;;;15.67;14.33;;;;;;;;5130570;27;8953;-75
2021/10/22 01:18:19;;;;;;;;;15.00;13.33;;;;;;;;5126432;27;9195;-76
2021/10/22 01:20:45;;;;;;;;;14.00;14.00;;;;;;;;5125195;27;8787;-79
2021/10/22 01:23:10;;;;;;;;;16.33;16.33;;;;;;;;5120077;28;8811;-78
2021/10/22 01:25:35;;;;;;;;;13.33;13.33;;;;;;;;5120390;27;8822;-78
2021/10/22 01:28:01;;;;;;;;;13.67;13.67;;;;;;;;5119385;28;8860;-78
2021/10/22 01:30:27;;;;;;;;;13.33;12.33;;;;;;;;5111993;27;9592;-78
2021/10/22 01:32:54;;;;;;;;;17.67;15.00;;;;;;;;5102427;28;8780;-76
2021/10/22 01:35:20;;;;;;;;;13.33;13.33;;;;;;;;5104295;28;9658;-75
2021/10/22 01:37:45;;;;;;;;;12.00;12.00;;;;;;;;5106976;28;9441;-75
2021/10/22 01:40:11;;;;;;;;;14.33;12.33;;;;;;;;5102706;28;8808;-76
2021/10/22 01:42:36;;;;;;;;;13.33;13.00;;;;;;;;5102481;28;8812;-76
2021/10/22 01:45:02;;;;;;;;;11.00;11.00;;;;;;;;5101900;28;8902;-75
2021/10/22 01:47:27;;;;;;;;;16.00;16.00;;;;;;;;5101896;28;8782;-75
2021/10/22 01:49:53;;;;;;;;;13.00;13.00;;;;;;;;5101823;28;8886;-78
2021/10/22 01:52:19;;;;;;;;;15.33;13.67;;;;;;;;5099926;28;8786;-77
2021/10/22 01:54:44;;;;;;;;;15.00;14.00;;;;;;;;5098864;28;9684;-78
2021/10/22 01:57:12;;;;;;;;;17.00;13.00;;;;;;;;5099070;28;9285;-79
2021/10/22 01:59:38;;;;;;;;;13.67;13.67;;;;;;;;5098755;28;9752;-78
2021/10/22 02:02:05;;;;;;;;;13.33;12.00;;;;;;;;5097183;28;9125;-77
2021/10/22 02:04:31;;;;;;;;;12.67;12.67;;;;;;;;5099713;28;8774;-79
2021/10/22 02:06:56;;;;;;;;;10.67;10.67;;;;;;;;5098287;28;9310;-78
2021/10/22 02:09:21;;;;;;;;;14.33;13.00;;;;;;;;5098867;28;9112;-77
2021/10/22 02:11:47;;;;;;;;;17.00;14.00;;;;;;;;5098623;28;8840;-78
2021/10/22 02:14:14;;;;;;;;;13.00;13.00;;;;;;;;5098933;28;8837;-77
2021/10/22 02:16:40;;;;;;;;;16.33;13.67;;;;;;;;5098542;28;8968;-78
2021/10/22 02:19:05;;;;;;;;;16.00;16.00;;;;;;;;5098400;28;9304;-76
2021/10/22 02:21:30;;;;;;;;;18.00;15.33;;;;;;;;5098417;28;9548;-75
2021/10/22 02:23:55;;;;;;;;;11.33;11.33;;;;;;;;5098330;28;8861;-76
2021/10/22 02:26:21;;;;;;;;;12.00;12.00;;;;;;;;5098194;28;8833;-76
2021/10/22 02:28:46;;;;;;;;;13.33;13.33;;;;;;;;5097047;28;8809;-75
2021/10/22 02:31:11;;;;;;;;;12.33;11.00;;;;;;;;5112760;28;8831;-76
2021/10/22 02:33:37;;;;;;;;;11.00;11.00;;;;;;;;5117096;28;8827;-75
2021/10/22 02:36:04;;;;;;;;;12.00;12.00;;;;;;;;5116825;28;9597;-78
2021/10/22 02:38:29;;;;;;;;;15.00;11.00;;;;;;;;5118063;27;8869;-76
2021/10/22 02:40:54;;;;;;;;;13.00;13.00;;;;;;;;5117843;27;9189;-79
2021/10/22 02:43:20;;;;;;;;;10.33;10.33;;;;;;;;5118413;27;8899;-78
2021/10/22 02:45:45;;;;;;;;;12.00;11.33;;;;;;;;5118295;27;8839;-78
2021/10/22 02:48:10;;;;;;;;;12.33;12.33;;;;;;;;5118164;27;8818;-79
2021/10/22 02:50:35;;;;;;;;;12.67;11.00;;;;;;;;5117953;27;8787;-76
2021/10/22 02:53:01;;;;;;;;;12.00;12.00;;;;;;;;5117700;27;8787;-77
2021/10/22 02:55:26;;;;;;;;;11.67;11.67;;;;;;;;5117702;27;8830;-75
2021/10/22 02:57:51;;;;;;;;;11.00;11.00;;;;;;;;5117861;27;8819;-76
2021/10/22 03:00:17;;;;;;;;;12.00;11.67;;;;;;;;5117872;27;8887;-76
2021/10/22 03:02:44;;;;;;;;;10.33;10.33;;;;;;;;5117904;27;8787;-75
2021/10/22 03:05:10;;;;;;;;;10.67;10.67;;;;;;;;5117892;27;8830;-75
2021/10/22 03:07:36;;;;;;;;;12.33;11.33;;;;;;;;5117644;27;10193;-79
2021/10/22 03:10:02;;;;;;;;;12.33;12.00;;;;;;;;5117673;27;9512;-78
2021/10/22 03:12:27;;;;;;;;;14.00;14.00;;;;;;;;5117806;27;8807;-78
2021/10/22 03:14:52;;;;;;;;;9.67;9.67;;;;;;;;5117419;27;8857;-78
2021/10/22 03:17:17;;;;;;;;;17.33;12.00;;;;;;;;5117757;27;8838;-78
2021/10/22 03:19:42;;;;;;;;;11.00;11.00;;;;;;;;5117974;27;8775;-76
2021/10/22 03:22:08;;;;;;;;;12.00;12.00;;;;;;;;5117944;27;9538;-77
2021/10/22 03:24:33;;;;;;;;;15.00;12.67;;;;;;;;5116557;28;9242;-77
2021/10/22 03:26:58;;;;;;;;;14.67;11.33;;;;;;;;5116767;28;8825;-76
2021/10/22 03:29:23;;;;;;;;;13.33;12.00;;;;;;;;5117447;27;8800;-75
2021/10/22 03:31:50;;;;;;;;;13.00;12.33;;;;;;;;5098336;28;8890;-75
2021/10/22 03:34:15;;;;;;;;;15.67;15.67;;;;;;;;5097896;28;9263;-76
2021/10/22 03:36:41;;;;;;;;;19.67;17.33;;;;;;;;5096357;28;8809;-78
2021/10/22 03:39:07;;;;;;;;;11.00;9.00;;;;;;;;5095111;28;8901;-77
2021/10/22 03:41:32;;;;;;;;;14.67;12.67;;;;;;;;5094942;28;11538;-78
2021/10/22 03:43:57;;;;;;;;;13.33;13.00;;;;;;;;5096691;28;8903;-78
2021/10/22 03:46:23;;;;;;;;;14.33;13.33;;;;;;;;5096695;28;8813;-79
2021/10/22 03:48:48;;;;;;;;;15.67;14.33;;;;;;;;5095405;28;8798;-78
2021/10/22 03:51:13;;;;;;;;;14.00;14.00;;;;;;;;5099382;28;9606;-76
2021/10/22 03:53:38;;;;;;;;;11.00;11.00;;;;;;;;5100458;28;8898;-76
2021/10/22 03:56:04;;;;;;;;;15.33;15.00;;;;;;;;5103774;28;8904;-76
2021/10/22 03:58:30;;;;;;;;;16.33;15.33;;;;;;;;5104978;28;8734;-76
2021/10/22 04:00:55;;;;;;;;;11.67;11.67;;;;;;;;5103774;28;11550;-75
2021/10/22 04:03:20;;;;;;;;;16.67;15.67;;;;;;;;5103668;28;8821;-77
2021/10/22 04:05:45;;;;;;;;;14.00;14.00;;;;;;;;5106141;28;9568;-76
2021/10/22 04:08:11;;;;;;;;;17.00;17.00;;;;;;;;5100817;28;8892;-78
2021/10/22 04:10:36;;;;;;;;;15.67;14.67;;;;;;;;5096360;28;8832;-78
2021/10/22 04:13:02;;;;;;;;;17.33;16.00;;;;;;;;5095969;28;8821;-78
2021/10/22 04:15:27;;;;;;;;;18.67;17.33;;;;;;;;5096226;28;8920;-79
2021/10/22 04:17:52;;;;;;;;;17.00;16.00;;;;;;;;5096216;28;8789;-78
2021/10/22 04:20:18;;;;;;;;;14.33;14.33;;;;;;;;5100617;28;8824;-79
2021/10/22 04:22:43;;;;;;;;;15.67;14.33;;;;;;;;5107727;28;8814;-77
2021/10/22 04:25:09;;;;;;;;;14.67;12.67;;;;;;;;5108692;28;8818;-76
2021/10/22 04:27:35;;;;;;;;;15.33;15.33;;;;;;;;5105758;28;8816;-77
2021/10/22 04:30:01;;;;;;;;;11.00;11.00;;;;;;;;5108079;28;8751;-76
2021/10/22 04:32:27;;;;;;;;;13.67;12.33;;;;;;;;5116886;27;9319;-75
2021/10/22 04:34:52;;;;;;;;;15.00;12.67;;;;;;;;5115358;28;9417;-75
2021/10/22 04:37:30;;;;;;;;;13.00;13.00;;;;;;;;5119784;27;8811;-78
2021/10/22 04:42:40;;;;;;;;;15.33;14.33;;;;;;;;5119584;28;9489;-78
2021/10/22 04:45:06;;;;;;;;;19.67;17.00;;;;;;;;5119566;27;9579;-78
2021/10/22 04:47:32;;;;;;;;;20.00;20.00;;;;;;;;5119655;27;9781;-78
2021/10/22 04:50:00;;;;;;;;;17.25;16.25;;;;;;;;5123829;28;9757;-76
2021/10/22 04:52:25;;;;;;;;;16.33;15.67;;;;;;;;5124675;27;9557;-75
2021/10/22 04:54:50;;;;;;;;;16.33;15.00;;;;;;;;5123885;27;9476;-76
2021/10/22 04:57:16;;;;;;;;;15.00;15.00;;;;;;;;5122771;27;8805;-76
2021/10/22 04:59:41;;;;;;;;;15.67;14.33;;;;;;;;5125110;27;8880;-76
2021/10/22 05:02:06;;;;;;;;;13.67;13.67;;;;;;;;5121597;28;8810;-76
2021/10/22 05:04:31;;;;;;;;;15.33;15.33;;;;;;;;5101960;28;8793;-78
2021/10/22 05:06:57;;;;;;;;;15.00;15.00;;;;;;;;5098890;28;8814;-78
2021/10/22 05:09:22;;;;;;;;;13.00;13.00;;;;;;;;5097058;28;8916;-78
2021/10/22 05:11:47;;;;;;;;;17.00;15.33;;;;;;;;5100524;28;8810;-79
2021/10/22 05:14:13;;;;;;;;;18.67;18.00;;;;;;;;5099756;28;8851;-80
2021/10/22 05:16:38;;;;;;;;;16.67;16.67;;;;;;;;5101520;28;8837;-78
2021/10/22 05:19:03;;;;;;;;;17.33;16.00;;;;;;;;5107418;28;8820;-75
2021/10/22 05:21:29;;;;;;;;;13.67;13.33;;;;;;;;5100539;28;8805;-75
2021/10/22 05:23:54;;;;;;;;;16.33;16.00;;;;;;;;5109278;28;8851;-78
2021/10/22 05:26:19;;;;;;;;;13.33;12.67;;;;;;;;5106153;28;8809;-77
2021/10/22 05:28:44;;;;;;;;;16.67;14.67;;;;;;;;5106630;28;8790;-78
2021/10/22 05:31:09;;;;;;;;;16.33;16.33;;;;;;;;5120981;28;8815;-77
2021/10/22 05:33:35;;;;;;;;;14.33;14.33;;;;;;;;5122298;27;8779;-76
2021/10/22 05:36:00;;;;;;;;;17.33;13.67;;;;;;;;5122579;27;8855;-76
2021/10/22 05:38:26;;;;;;;;;17.25;17.00;;;;;;;;5124957;27;8856;-77
2021/10/22 05:40:52;;;;;;;;;19.33;16.00;;;;;;;;5122179;28;8743;-74
2021/10/22 05:43:18;;;;;;;;;14.25;13.75;;;;;;;;5124992;28;9428;-74
2021/10/22 05:45:43;;;;;;;;;16.67;16.00;;;;;;;;5123213;27;9558;-74
2021/10/22 05:48:08;;;;;;;;;19.33;17.67;;;;;;;;5121869;28;8799;-74
2021/10/22 05:50:33;;;;;;;;;19.25;16.25;;;;;;;;5123809;28;9542;-75
2021/10/22 05:52:59;;;;;;;;;15.00;14.33;;;;;;;;5126584;27;8787;-74
2021/10/22 05:55:24;;;;;;;;;18.67;17.00;;;;;;;;5123933;27;8897;-74
2021/10/22 05:57:49;;;;;;;;;15.33;13.67;;;;;;;;5123741;27;8803;-74
2021/10/22 06:00:14;;;;;;;;;14.00;14.00;;;;;;;;5122454;27;8921;-74
2021/10/22 06:02:40;;;;;;;;;19.67;15.33;;;;;;;;5122845;27;8783;-76
2021/10/22 06:05:06;;;;;;;;;18.00;16.75;;;;;;;;5118549;27;8783;-74
2021/10/22 06:07:31;;;;;;;;;16.67;16.00;;;;;;;;5118363;27;12275;-76
2021/10/22 06:09:56;;;;;;;;;13.33;10.00;;;;;;;;5118330;27;8851;-78
2021/10/22 06:12:24;;;;;;;;;15.00;14.00;;;;;;;;5107939;27;8825;-78
2021/10/22 06:14:49;;;;;;;;;19.00;17.67;;;;;;;;5097368;28;8913;-78
2021/10/22 06:17:15;;;;;;;;;15.33;13.33;;;;;;;;5096423;28;9569;-77
2021/10/22 06:19:44;;;;;;;;;21.33;17.00;;;;;;;;5097828;28;8790;-78
2021/10/22 06:22:17;;;;;;;;;17.25;15.25;;;;;;;;5096201;28;8825;-78
2021/10/22 06:24:42;;;;;;;;;21.50;20.50;;;;;;;;5097541;28;9514;-76
2021/10/22 06:27:09;;;;;;;;;22.00;20.25;;;;;;;;5096073;28;9742;-76
2021/10/22 06:29:34;;;;;;;;;21.00;20.75;;;;;;;;5099736;28;8810;-78
2021/10/22 06:31:59;;;;;;;;;23.00;22.75;;;;;;;;5117989;27;11195;-75
2021/10/22 06:34:26;;;;;;;;;21.00;21.00;;;;;;;;5116615;28;8806;-76
2021/10/22 06:36:52;;;;;;;;;24.00;21.75;;;;;;;;5117899;27;8884;-76
2021/10/22 06:39:17;;;;;;;;;21.50;18.50;;;;;;;;5117836;27;9715;-76
2021/10/22 06:41:43;;;;;;;;;22.75;22.75;;;;;;;;5116377;28;8830;-78
2021/10/22 06:44:08;;;;;;;;;26.75;25.50;;;;;;;;5116459;28;9563;-78
2021/10/22 06:46:34;;;;;;;;;23.50;23.50;;;;;;;;5117841;27;8825;-75
2021/10/22 06:48:59;;;;;;;;;27.00;24.50;;;;;;;;5116484;28;8846;-78
2021/10/22 06:51:24;;;;;;;;;22.25;21.50;;;;;;;;5116225;28;8815;-77
2021/10/22 06:53:49;;;;;;;;;23.50;21.25;;;;;;;;5116157;28;8814;-78
2021/10/22 06:56:15;;;;;;;;;27.50;23.75;;;;;;;;5117766;27;8799;-76
2021/10/22 06:58:41;;;;;;;;;27.25;24.75;;;;;;;;5117137;27;8763;-77
2021/10/22 07:01:06;;;;;;;;;23.25;22.50;;;;;;;;5116336;28;9997;-78
2021/10/22 07:03:39;;;;;;;;;25.25;22.75;;;;;;;;5117708;27;8833;-78
2021/10/22 07:08:48;;;;;;;;;32.00;28.00;;;;;;;;5117249;28;9719;-78
2021/10/22 07:11:14;;;;;;;;;23.75;22.75;;;;;;;;5117396;27;9924;-77
2021/10/22 07:13:40;;;;;;;;;26.25;25.50;;;;;;;;5117525;27;8783;-76
2021/10/22 07:16:05;;;;;;;;;24.25;23.50;;;;;;;;5117021;27;9902;-76
2021/10/22 07:18:30;;;;;;;;;32.50;29.25;;;;;;;;5116052;28;8815;-78
2021/10/22 07:20:55;;;;;;;;;30.75;28.50;;;;;;;;5117378;27;9573;-78
2021/10/22 07:23:22;;;;;;;;;29.00;27.25;;;;;;;;5115902;28;8847;-78
2021/10/22 07:25:47;;;;;;;;;35.50;33.25;;;;;;;;5115645;28;8825;-78
2021/10/22 07:28:14;;;;;;;;;30.75;29.00;;;;;;;;5117171;27;10138;-78
2021/10/22 07:30:42;;;;;;;;;38.00;33.25;;;;;;;;5105603;27;8798;-76
2021/10/22 07:33:07;;;;;;;;;37.75;34.25;;;;;;;;5096750;28;10294;-76
2021/10/22 07:35:33;;;;;;;;;63.25;49.25;;;;;;;;5096634;28;10524;-78
2021/10/22 07:37:58;;;;;;;;;57.50;47.00;;;;;;;;5096612;28;8864;-76
2021/10/22 07:40:23;;;;;;;;;55.25;44.00;;;;;;;;5096346;28;8797;-78
2021/10/22 07:42:49;;;;;;;;;55.25;45.00;;;;;;;;5096592;28;8805;-78
2021/10/22 07:45:14;;;;;;;;;47.50;40.25;;;;;;;;5096558;28;9607;-77
2021/10/22 07:47:39;;;;;;;;;41.00;37.50;;;;;;;;5096693;28;8816;-79
2021/10/22 07:50:06;;;;;;;;;38.75;35.00;;;;;;;;5095008;28;8814;-76
2021/10/22 07:52:31;;;;;;;;;33.25;32.00;;;;;;;;5096110;28;8793;-75
2021/10/22 07:54:59;;;;;;;;;19.33;18.67;;;;;;;;5094721;28;9980;-76
2021/10/22 07:57:26;;;;;;;;;20.00;19.00;;;;;;;;5096513;28;8878;-79
2021/10/22 07:59:51;;;;;;;;;19.33;18.00;;;;;;;;5094934;28;9454;-76
2021/10/22 08:02:17;;;;;;;;;18.00;17.00;;;;;;;;5096463;28;9329;-76
2021/10/22 08:04:47;;;;;;;;;22.00;18.67;;;;;;;;5094988;28;8903;-75
2021/10/22 08:07:13;;;;;;;;;24.00;21.67;;;;;;;;5094940;28;8822;-76
2021/10/22 08:09:43;;;;;;;;;21.00;20.00;;;;;;;;5097197;28;9287;-76
2021/10/22 08:12:08;;;;;;;;;22.33;21.67;;;;;;;;5099980;28;9561;-76
2021/10/22 08:14:33;;;;;;;;;22.67;21.00;;;;;;;;5099829;28;9427;-76
2021/10/22 08:16:59;;;;;;;;;27.67;23.33;;;;;;;;5098544;28;8933;-75
2021/10/22 08:19:25;;;;;;;;;18.75;16.00;;;;;;;;5099787;28;9724;-75
2021/10/22 08:24:21;;;;;;;;;19.00;18.33;;;;;;;;5099586;28;8797;-76
2021/10/22 08:26:47;;;;;;;;;16.33;16.33;;;;;;;;5099783;28;9454;-76
2021/10/22 08:29:12;;;;;;;;;21.67;21.00;;;;;;;;5099750;28;8859;-76
2021/10/22 08:31:37;;;;;;;;;16.00;15.33;;;;;;;;5119100;28;8830;-78
2021/10/22 08:34:02;;;;;;;;;15.67;14.33;;;;;;;;5120073;27;9510;-78
2021/10/22 08:36:27;;;;;;;;;14.00;13.00;;;;;;;;5119858;27;8857;-78
2021/10/22 08:38:53;;;;;;;;;17.33;16.67;;;;;;;;5119752;27;8784;-78
2021/10/22 08:41:20;;;;;;;;;16.33;16.00;;;;;;;;5119847;27;9636;-78
2021/10/22 08:43:45;;;;;;;;;19.00;16.00;;;;;;;;5119943;27;8788;-79
2021/10/22 08:46:11;;;;;;;;;17.33;14.67;;;;;;;;5119870;27;9211;-75
2021/10/22 08:48:37;;;;;;;;;13.67;13.00;;;;;;;;5119981;27;8775;-76
2021/10/22 08:51:02;;;;;;;;;11.67;10.67;;;;;;;;5119724;27;9118;-76
2021/10/22 08:53:29;;;;;;;;;14.00;13.00;;;;;;;;5119770;27;8790;-75
2021/10/22 08:55:54;;;;;;;;;14.00;13.33;;;;;;;;5119504;27;9886;-76
2021/10/22 08:58:20;;;;;;;;;13.00;12.00;;;;;;;;5119740;27;8968;-76
2021/10/22 09:00:46;;;;;;;;;14.33;13.67;;;;;;;;5119720;27;8847;-75
2021/10/22 09:03:15;;;;;;;;;15.00;14.33;;;;;;;;5119736;27;8791;-76
2021/10/22 09:06:01;;;;;;;;;13.25;13.25;;;;;;;;5119735;27;9848;-76
2021/10/22 09:08:34;;;;;;;;;10.25;10.25;;;;;;;;5118192;28;8780;-74
2021/10/22 09:11:00;;;;;;;;;11.50;11.50;;;;;;;;5119609;27;9685;-77
2021/10/22 09:13:29;;;;;;;;;9.33;7.00;;;;;;;;5117735;28;8791;-78
2021/10/22 09:15:56;;;;;;;;;7.00;6.00;;;;;;;;5117823;28;8823;-77
2021/10/22 09:18:26;;;;;;;;;8.00;8.00;;;;;;;;5119202;27;8779;-77
2021/10/22 09:20:51;;;;;;;;;8.50;8.50;;;;;;;;5117731;28;8930;-75
2021/10/22 09:23:22;;;;;;;;;10.67;9.67;;;;;;;;5119285;27;8905;-77
2021/10/22 09:25:48;;;;;;;;;9.00;9.00;;;;;;;;5119142;27;8719;-75
2021/10/22 09:28:15;;;;;;;;;11.00;10.33;;;;;;;;5118711;27;9538;-76
2021/10/22 09:30:45;;;;;;;;;14.50;12.50;;;;;;;;5105874;28;8794;-76
2021/10/22 09:33:10;;;;;;;;;11.00;11.00;;;;;;;;5098814;28;8789;-76
2021/10/22 09:35:43;;;;;;;;;10.67;9.00;;;;;;;;5098639;28;8861;-75
2021/10/22 09:38:16;;;;;;;;;12.25;11.00;;;;;;;;5097024;28;9079;-74
2021/10/22 09:40:41;;;;;;;;;11.75;11.50;;;;;;;;5098150;28;8742;-75
2021/10/22 09:43:12;;;;;;;;;12.00;12.00;;;;;;;;5097028;28;9470;-75
2021/10/22 09:45:38;;;;;;;;;14.00;12.75;;;;;;;;5097132;28;8797;-74
2021/10/22 09:48:23;;;;;;;;;12.00;12.00;;;;;;;;5098651;28;8785;-73
2021/10/22 09:50:48;;;;;;;;;16.75;14.50;;;;;;;;5098580;28;8770;-74
2021/10/22 09:53:21;;;;;;;;;13.67;13.67;;;;;;;;5096772;28;8824;-74
2021/10/22 09:55:59;;;;;;;;;16.00;15.50;;;;;;;;5098198;28;8813;-74
2021/10/22 09:58:24;;;;;;;;;16.75;16.75;;;;;;;;5097019;28;8789;-75
2021/10/22 10:01:04;;;;;;;;;22.67;20.00;;;;;;;;5098244;28;9525;-76
2021/10/22 10:03:29;;;;;;;;;19.25;17.00;;;;;;;;5098179;28;9661;-76
2021/10/22 10:05:55;;;;;;;;;19.33;19.33;;;;;;;;5098267;28;8828;-76
2021/10/22 10:08:20;;;;;;;;;19.67;18.00;;;;;;;;5097980;28;8920;-74
2021/10/22 10:10:45;;;;;;;;;19.67;18.33;;;;;;;;5097939;28;8785;-76
2021/10/22 10:13:11;;;;;;;;;17.33;15.67;;;;;;;;5096655;28;8856;-75
2021/10/22 10:15:38;;;;;;;;;16.33;16.33;;;;;;;;5097863;28;8918;-75
2021/10/22 10:18:07;;;;;;;;;18.00;18.00;;;;;;;;5097980;28;8766;-73
2021/10/22 10:20:32;;;;;;;;;23.67;21.00;;;;;;;;5098001;28;8890;-75
2021/10/22 10:23:01;;;;;;;;;15.33;14.33;;;;;;;;5097898;28;8888;-75
2021/10/22 10:25:27;;;;;;;;;17.33;16.00;;;;;;;;5097673;28;8816;-75
2021/10/22 10:27:54;;;;;;;;;17.00;17.00;;;;;;;;5097898;28;8936;-74
2021/10/22 10:30:29;;;;;;;;;16.25;14.75;;;;;;;;5104972;28;8829;-75
2021/10/22 10:32:55;;;;;;;;;18.00;16.00;;;;;;;;5117386;27;8829;-75
2021/10/22 10:35:20;;;;;;;;;17.00;14.33;;;;;;;;5117947;27;8896;-75
2021/10/22 10:37:50;;;;;;;;;8.00;8.00;;;;;;;;5117953;27;8935;-76
2021/10/22 10:40:24;;;;;;;;;10.75;10.00;;;;;;;;5117980;27;8768;-76
2021/10/22 10:42:57;;;;;;;;;9.50;9.50;;;;;;;;5116578;28;8802;-74
2021/10/22 10:45:25;;;;;;;;;9.25;9.25;;;;;;;;5116630;28;8817;-76
2021/10/22 10:47:51;;;;;;;;;14.25;12.25;;;;;;;;5116666;28;8821;-78
2021/10/22 10:50:21;;;;;;;;;9.00;8.50;;;;;;;;5117974;27;8716;-78
2021/10/22 10:52:47;;;;;;;;;10.75;10.75;;;;;;;;5117413;27;8794;-76
2021/10/22 10:55:13;;;;;;;;;8.25;8.25;;;;;;;;5117518;27;8795;-77
2021/10/22 10:57:46;;;;;;;;;9.00;9.00;;;;;;;;5116440;28;8838;-78
2021/10/22 11:00:20;;;;;;;;;9.25;9.00;;;;;;;;5117760;27;8798;-76
2021/10/22 11:03:01;;;;;;;;;10.00;10.00;;;;;;;;5117739;27;8797;-75
2021/10/22 11:05:42;;;;;;;;;9.50;8.25;;;;;;;;5117691;27;8787;-75
2021/10/22 11:08:15;;;;;;;;;9.25;8.00;;;;;;;;5117739;27;8791;-76
2021/10/22 11:11:04;;;;;;;;;8.25;7.25;;;;;;;;5117556;27;9728;-75
2021/10/22 11:13:41;;;;;;;;;8.50;7.75;;;;;;;;5115995;28;8806;-76
2021/10/22 11:16:08;;;;;;;;;9.50;9.50;;;;;;;;5098433;27;9712;-77
2021/10/22 11:18:35;;;;;;;;;7.50;7.50;;;;;;;;5096410;28;8782;-78
2021/10/22 11:21:01;;;;;;;;;10.25;7.50;;;;;;;;5096855;28;8793;-75
2021/10/22 11:23:27;;;;;;;;;7.67;6.33;;;;;;;;5095135;28;8825;-77
2021/10/22 11:25:56;;;;;;;;;7.00;5.00;;;;;;;;5096837;28;8806;-76
2021/10/22 11:28:29;;;;;;;;;3.50;3.50;;;;;;;;5095528;28;8813;-75
2021/10/22 11:30:55;;;;;;;;;3.50;3.50;;;;;;;;5110364;28;9744;-76
2021/10/22 11:33:21;;;;;;;;;3.00;3.00;;;;;;;;5117291;27;8803;-74
2021/10/22 11:35:47;;;;;;;;;4.00;4.00;;;;;;;;5117333;27;8815;-76
2021/10/22 11:38:12;;;;;;;;;2.50;2.50;;;;;;;;5115779;28;8826;-75
2021/10/22 11:40:39;;;;;;;;;2.00;2.00;;;;;;;;5115464;28;8803;-74
2021/10/22 11:43:07;;;;;;;;;0.75;0.75;;;;;;;;5116836;27;8799;-75
2021/10/22 11:45:32;;;;;;;;;2.75;1.25;;;;;;;;5116944;27;8794;-75
2021/10/22 11:47:58;;;;;;;;;2.67;2.67;;;;;;;;5117149;27;8837;-74
2021/10/22 11:50:25;;;;;;;;;4.33;4.33;;;;;;;;5116561;28;8822;-74
2021/10/22 11:53:13;;;;;;;;;2.00;2.00;;;;;;;;5116005;27;8806;-75
2021/10/22 11:55:39;;;;;;;;;1.00;0.25;;;;;;;;5116776;27;9763;-76
2021/10/22 11:58:06;;;;;;;;;2.50;2.50;;;;;;;;5117179;27;8838;-75
2021/10/22 12:00:31;;;;;;;;;1.25;1.25;;;;;;;;5115684;28;8799;-75
2021/10/22 12:02:56;;;;;;;;;1.67;1.33;;;;;;;;5117032;27;8835;-75
2021/10/22 12:05:22;;;;;;;;;1.00;1.00;;;;;;;;5116947;27;8899;-75
2021/10/22 12:07:48;;;;;;;;;4.33;1.67;;;;;;;;5116819;27;8811;-75
2021/10/22 12:10:15;;;;;;;;;2.25;2.25;;;;;;;;5115576;28;8886;-75
2021/10/22 12:12:41;;;;;;;;;4.25;3.00;;;;;;;;5116784;27;8728;-75
2021/10/22 12:15:07;;;;;;;;;1.00;1.00;;;;;;;;5116795;27;8780;-75
2021/10/22 12:17:33;;;;;;;;;2.00;2.00;;;;;;;;5116888;27;8791;-75
2021/10/22 12:20:01;;;;;;;;;1.25;1.25;;;;;;;;5116745;27;8771;-76
2021/10/22 12:22:35;;;;;;;;;2.00;2.00;;;;;;;;5117425;27;8783;-79
2021/10/22 12:25:03;;;;;;;;;2.00;1.25;;;;;;;;5116655;27;9815;-77
2021/10/22 12:27:29;;;;;;;;;2.75;2.50;;;;;;;;5116654;27;9713;-78
2021/10/22 12:29:59;;;;;;;;;2.67;2.00;;;;;;;;5109662;28;8922;-75
2021/10/22 12:32:25;;;;;;;;;1.25;1.25;;;;;;;;5096105;28;8766;-75
2021/10/22 12:34:54;;;;;;;;;2.00;1.67;;;;;;;;5094818;28;8786;-75
2021/10/22 12:37:29;;;;;;;;;2.75;1.50;;;;;;;;5095944;28;9419;-74
2021/10/22 12:39:55;;;;;;;;;1.25;1.25;;;;;;;;5094085;28;9328;-75
2021/10/22 12:42:21;;;;;;;;;1.00;1.00;;;;;;;;5095664;28;8893;-75
2021/10/22 12:44:47;;;;;;;;;2.25;2.25;;;;;;;;5095955;28;8800;-75
2021/10/22 12:47:12;;;;;;;;;2.00;2.00;;;;;;;;5095669;28;8794;-75
2021/10/22 12:49:38;;;;;;;;;2.67;2.00;;;;;;;;5093630;28;8806;-75
2021/10/22 12:52:04;;;;;;;;;3.00;2.00;;;;;;;;5094027;28;9573;-76
2021/10/22 12:54:29;;;;;;;;;1.75;1.75;;;;;;;;5095571;28;8788;-77
2021/10/22 12:56:55;;;;;;;;;2.00;2.00;;;;;;;;5097497;28;8833;-75
2021/10/22 12:59:25;;;;;;;;;2.67;2.67;;;;;;;;5098875;28;8896;-77
2021/10/22 13:01:53;;;;;;;;;1.00;1.00;;;;;;;;5099208;28;9722;-77
2021/10/22 13:04:20;;;;;;;;;2.25;2.25;;;;;;;;5099118;28;8782;-77
2021/10/22 13:06:55;;;;;;;;;4.50;2.25;;;;;;;;5098996;28;8751;-77
2021/10/22 13:22:28;;;;;;;;;2.00;0.25;;;;;;;;5098870;28;8773;-77
2021/10/22 13:24:54;;;;;;;;;3.33;3.33;;;;;;;;5098749;28;8852;-78
2021/10/22 13:27:27;;;;;;;;;1.00;1.00;;;;;;;;5095837;28;8814;-75
2021/10/22 13:29:56;;;;;;;;;5.25;4.00;;;;;;;;5101472;28;8802;-75
2021/10/22 13:32:23;;;;;;;;;4.75;4.00;;;;;;;;5119468;27;8779;-75
2021/10/22 13:34:49;;;;;;;;;4.00;3.50;;;;;;;;5117837;28;8838;-74
2021/10/22 13:37:14;;;;;;;;;1.00;1.00;;;;;;;;5117603;28;8815;-76
2021/10/22 13:39:39;;;;;;;;;2.00;1.00;;;;;;;;5118994;27;8799;-76
2021/10/22 13:42:04;;;;;;;;;2.33;2.33;;;;;;;;5119050;27;8787;-76
2021/10/22 13:44:30;;;;;;;;;2.00;2.00;;;;;;;;5119296;27;8810;-75
2021/10/22 13:46:56;;;;;;;;;3.00;2.00;;;;;;;;5119157;27;9530;-75
2021/10/22 13:49:21;;;;;;;;;3.67;1.00;;;;;;;;5119129;27;8795;-76
2021/10/22 13:51:46;;;;;;;;;2.00;2.00;;;;;;;;5117317;28;9498;-75
2021/10/22 13:54:11;;;;;;;;;3.67;2.00;;;;;;;;5117496;28;8847;-75
2021/10/22 13:56:37;;;;;;;;;2.00;2.00;;;;;;;;5118947;27;8934;-75
2021/10/22 13:59:02;;;;;;;;;1.00;1.00;;;;;;;;5118901;27;8767;-77
2021/10/22 14:01:28;;;;;;;;;2.00;2.00;;;;;;;;5119006;27;9581;-78
2021/10/22 14:03:53;;;;;;;;;1.33;1.33;;;;;;;;5118793;27;8887;-76
2021/10/22 14:06:18;;;;;;;;;2.00;2.00;;;;;;;;5117361;28;8815;-76
2021/10/22 14:08:43;;;;;;;;;4.00;3.00;;;;;;;;5117013;27;8771;-77
2021/10/22 14:11:12;;;;;;;;;2.67;2.67;;;;;;;;5118713;27;8813;-77
2021/10/22 14:14:17;;;;;;;;;4.50;3.25;;;;;;;;5127047;27;8720;-80
2021/10/22 14:16:41;;;;;;;;;2.75;2.75;;;;;;;;5129574;27;8799;-80
2021/10/22 14:24:44;;;;;;;;;1.75;1.25;;;;;;;;5130206;28;8700;-79
2021/10/22 14:29:57;;;;;;;;;2.00;2.00;;;;;;;;5118890;28;8704;-75
2021/10/22 14:32:23;;;;;;;;;3.50;2.00;;;;;;;;5118091;27;8739;-79
2021/10/22 14:34:50;;;;;;;;;2.25;1.25;;;;;;;;5116777;28;8787;-79
2021/10/22 14:37:15;;;;;;;;;2.50;2.25;;;;;;;;5116610;28;8901;-79
2021/10/22 14:39:40;;;;;;;;;4.33;3.33;;;;;;;;5117263;27;8763;-75
2021/10/22 14:42:07;;;;;;;;;2.00;2.00;;;;;;;;5118055;27;8779;-79
2021/10/22 14:44:36;;;;;;;;;2.75;2.75;;;;;;;;5116971;27;8779;-78
2021/10/22 14:47:34;;;;;;;;;2.75;2.75;;;;;;;;5117138;27;8779;-79
2021/10/22 14:50:16;;;;;;;;;2.00;2.00;;;;;;;;5116983;28;8744;-76
2021/10/22 14:55:28;;;;;;;;;4.00;3.00;;;;;;;;5117023;27;8767;-76
2021/10/22 14:57:55;;;;;;;;;2.00;2.00;;;;;;;;5116551;28;8787;-76
2021/10/22 15:00:22;;;;;;;;;3.50;2.00;;;;;;;;5117961;27;8789;-77
2021/10/22 15:02:48;;;;;;;;;5.50;3.75;;;;;;;;5117439;27;8768;-76
2021/10/22 15:05:14;;;;;;;;;5.00;3.50;;;;;;;;5117582;27;8772;-76
2021/10/22 15:07:39;;;;;;;;;4.00;3.00;;;;;;;;5117469;27;8841;-76